Time;durP1;ratioP1;P1;durP2;ratioP2;P2;SDS_P1;SDS_P2;PMS_P1;PMS_P2;Temp;Humidity;BMP_temperature;BMP_pressure;BME280_temperature;BME280_humidity;BME280_pressure;Samples;Min_cycle;Max_cycle;Signal;HPM_P1;HPM_P2
2023/09/16 06:33:40;;;;;;;8.45;3.78;;;;;;;;;;10664647;27;20058;-81
2023/09/16 06:39:20;;;;;;;10.85;3.80;;;;;;;;;;10620819;28;20035;-82
2023/09/16 06:44:23;;;;;;;7.68;3.88;;;;;;;;;;10588244;28;20039;-82
2023/09/16 06:49:25;;;;;;;8.27;3.58;;;;;;;;;;10614480;28;20036;-82
2023/09/16 06:54:39;;;;;;;7.10;3.38;;;;;;;;;;10609565;28;20051;-82
2023/09/16 06:59:41;;;;;;;7.47;3.80;;;;;;;;;;10589508;28;20032;-81
2023/09/16 07:04:42;;;;;;;6.00;3.40;;;;;;;;;;10615014;28;20048;-82
2023/09/16 07:09:44;;;;;;;8.38;3.65;;;;;;;;;;10586187;28;20032;-81
2023/09/16 07:14:46;;;;;;;4.70;3.53;;;;;;;;;;10585143;28;20040;-82
2023/09/16 07:19:47;;;;;;;11.25;4.10;;;;;;;;;;10604222;28;20157;-81
2023/09/16 07:25:11;;;;;;;5.45;3.60;;;;;;;;;;10587360;28;20534;-81
2023/09/16 07:30:15;;;;;;;6.78;4.80;;;;;;;;;;10582405;28;20083;-83
2023/09/16 07:35:19;;;;;;;8.23;3.33;;;;;;;;;;10599225;28;20119;-81
2023/09/16 07:40:20;;;;;;;4.80;3.65;;;;;;;;;;10576796;28;20134;-78
2023/09/16 07:45:27;;;;;;;5.20;3.80;;;;;;;;;;10571918;28;20495;-79
2023/09/16 07:50:28;;;;;;;7.97;3.78;;;;;;;;;;10570657;28;20434;-80
2023/09/16 07:55:29;;;;;;;5.05;3.30;;;;;;;;;;10569123;28;20023;-78
2023/09/16 08:00:30;;;;;;;5.78;3.80;;;;;;;;;;10569089;28;20055;-78
2023/09/16 08:05:31;;;;;;;6.95;3.13;;;;;;;;;;10568496;28;20039;-78
2023/09/16 08:10:32;;;;;;;5.85;3.40;;;;;;;;;;10567768;28;20038;-78
2023/09/16 08:15:33;;;;;;;4.43;3.08;;;;;;;;;;10568334;28;20132;-78
2023/09/16 08:20:34;;;;;;;4.45;3.15;;;;;;;;;;10568517;28;20050;-78
2023/09/16 08:25:35;;;;;;;4.57;3.20;;;;;;;;;;10566925;28;20429;-78
2023/09/16 08:30:36;;;;;;;4.35;3.78;;;;;;;;;;10567080;28;20043;-78
2023/09/16 08:35:39;;;;;;;5.85;3.70;;;;;;;;;;10568982;28;20108;-82
2023/09/16 08:40:53;;;;;;;4.03;3.00;;;;;;;;;;10588693;28;20485;-80
2023/09/16 08:46:01;;;;;;;4.65;3.38;;;;;;;;;;10572276;28;20036;-78
2023/09/16 08:51:05;;;;;;;5.25;4.00;;;;;;;;;;10567203;28;20115;-79
2023/09/16 08:56:07;;;;;;;3.78;3.00;;;;;;;;;;10585481;28;20040;-78
2023/09/16 09:01:10;;;;;;;4.45;3.17;;;;;;;;;;10565425;28;20031;-79
2023/09/16 09:06:16;;;;;;;5.72;3.25;;;;;;;;;;10591014;28;20031;-81
2023/09/16 09:11:18;;;;;;;5.07;3.00;;;;;;;;;;10578237;28;20028;-83
2023/09/16 09:16:20;;;;;;;7.85;5.00;;;;;;;;;;10598063;28;20101;-81
2023/09/16 09:21:21;;;;;;;4.35;3.42;;;;;;;;;;10580199;28;20089;-81
2023/09/16 09:26:22;;;;;;;7.30;3.67;;;;;;;;;;10577113;28;20123;-83
2023/09/16 09:31:23;;;;;;;4.10;3.70;;;;;;;;;;10577781;28;20138;-81
2023/09/16 09:36:30;;;;;;;5.82;4.00;;;;;;;;;;10579531;28;20039;-83
2023/09/16 09:41:42;;;;;;;4.60;3.55;;;;;;;;;;10598808;28;20039;-82
2023/09/16 09:46:44;;;;;;;4.70;4.22;;;;;;;;;;10579155;28;20054;-83
2023/09/16 09:51:48;;;;;;;5.00;3.95;;;;;;;;;;10602588;28;20032;-81
2023/09/16 09:56:49;;;;;;;5.07;4.57;;;;;;;;;;10592164;28;20076;-78
2023/09/16 10:01:50;;;;;;;7.38;4.10;;;;;;;;;;10586051;28;20035;-77
2023/09/16 10:06:53;;;;;;;5.25;4.72;;;;;;;;;;10585828;28;20027;-77
2023/09/16 10:11:58;;;;;;;6.00;4.70;;;;;;;;;;10569034;28;20090;-79
2023/09/16 10:16:59;;;;;;;4.72;4.32;;;;;;;;;;10563169;28;20127;-79
2023/09/16 10:22:00;;;;;;;5.80;4.38;;;;;;;;;;10563541;28;20058;-79
2023/09/16 10:27:06;;;;;;;6.35;5.00;;;;;;;;;;10564305;28;20042;-80
2023/09/16 10:32:07;;;;;;;5.43;4.93;;;;;;;;;;10585077;28;20094;-78
2023/09/16 10:37:11;;;;;;;5.60;5.10;;;;;;;;;;10588313;28;20039;-77
2023/09/16 10:42:19;;;;;;;6.40;5.80;;;;;;;;;;10552739;28;20039;-78
2023/09/16 10:47:20;;;;;;;5.13;4.70;;;;;;;;;;10570815;28;20331;-78
2023/09/16 10:52:25;;;;;;;6.20;5.60;;;;;;;;;;10570056;28;20039;-79
2023/09/16 10:57:31;;;;;;;8.02;6.00;;;;;;;;;;10587477;28;20032;-77
2023/09/16 11:02:44;;;;;;;7.07;6.32;;;;;;;;;;10568094;28;20032;-78
2023/09/16 11:07:46;;;;;;;7.60;6.80;;;;;;;;;;10569300;28;20039;-78
2023/09/16 11:12:47;;;;;;;6.25;5.65;;;;;;;;;;10569558;28;20031;-78
2023/09/16 11:17:49;;;;;;;7.00;6.30;;;;;;;;;;10567402;28;20515;-78
2023/09/16 11:22:50;;;;;;;5.90;5.32;;;;;;;;;;10570496;28;20032;-79
2023/09/16 11:27:51;;;;;;;8.13;7.32;;;;;;;;;;10554372;28;20036;-80
2023/09/16 11:32:55;;;;;;;6.82;6.22;;;;;;;;;;10571851;28;20039;-79
2023/09/16 11:37:57;;;;;;;7.95;6.65;;;;;;;;;;10578977;28;20035;-83
2023/09/16 11:42:59;;;;;;;7.82;7.10;;;;;;;;;;10576611;28;20104;-79
2023/09/16 11:48:02;;;;;;;6.20;5.18;;;;;;;;;;10592302;28;20039;-84
2023/09/16 11:53:09;;;;;;;7.90;7.05;;;;;;;;;;10580378;28;20035;-84
2023/09/16 11:58:15;;;;;;;6.75;5.72;;;;;;;;;;10598737;28;20035;-82
2023/09/16 12:03:19;;;;;;;6.65;5.50;;;;;;;;;;10594732;28;20027;-82
2023/09/16 12:08:21;;;;;;;7.40;4.90;;;;;;;;;;10576093;28;20405;-82
2023/09/16 12:13:42;;;;;;;6.50;5.90;;;;;;;;;;10615551;22;20405;-81
2023/09/16 12:18:44;;;;;;;7.85;6.00;;;;;;;;;;10577351;28;20039;-82
2023/09/16 12:23:51;;;;;;;6.65;5.97;;;;;;;;;;10591000;28;20095;-81
2023/09/16 12:29:34;;;;;;;6.55;5.72;;;;;;;;;;10630632;28;20088;-83
2023/09/16 12:34:38;;;;;;;8.88;6.80;;;;;;;;;;10605567;28;20085;-82
2023/09/16 12:39:59;;;;;;;8.95;6.43;;;;;;;;;;10597785;28;20089;-82
2023/09/16 12:45:16;;;;;;;5.60;4.93;;;;;;;;;;10574038;28;20032;-82
2023/09/16 12:50:18;;;;;;;7.72;6.18;;;;;;;;;;10573394;28;20052;-82
2023/09/16 13:01:02;;;;;;;6.53;5.60;;;;;;;;;;10589824;28;20032;-84
2023/09/16 13:06:03;;;;;;;6.00;5.10;;;;;;;;;;10568357;28;20031;-82
2023/09/16 13:11:04;;;;;;;6.15;5.40;;;;;;;;;;10572517;28;20028;-83
2023/09/16 13:16:06;;;;;;;6.10;5.45;;;;;;;;;;10571130;28;20039;-82
2023/09/16 13:21:07;;;;;;;7.00;6.25;;;;;;;;;;10570515;28;20023;-82
2023/09/16 13:26:10;;;;;;;5.63;4.85;;;;;;;;;;10569732;28;20046;-82
2023/09/16 13:31:11;;;;;;;8.93;6.47;;;;;;;;;;10572637;28;20085;-83
2023/09/16 13:36:12;;;;;;;6.30;5.68;;;;;;;;;;10569725;28;20084;-82
2023/09/16 13:41:13;;;;;;;6.40;5.80;;;;;;;;;;10587796;28;20418;-82
2023/09/16 13:46:14;;;;;;;6.80;5.20;;;;;;;;;;10574917;28;20028;-83
2023/09/16 13:51:15;;;;;;;6.32;5.65;;;;;;;;;;10574509;28;20687;-85
2023/09/16 13:56:16;;;;;;;5.85;5.28;;;;;;;;;;10573157;28;20130;-83
2023/09/16 14:01:17;;;;;;;6.53;5.47;;;;;;;;;;10573570;28;20036;-83
2023/09/16 14:06:20;;;;;;;6.13;5.50;;;;;;;;;;10574845;28;20107;-83
2023/09/16 14:11:21;;;;;;;6.70;6.05;;;;;;;;;;10582211;28;20062;-83
2023/09/16 14:16:24;;;;;;;5.93;4.95;;;;;;;;;;10582158;28;20092;-83
2023/09/16 14:21:25;;;;;;;7.00;6.03;;;;;;;;;;10581946;28;20036;-84
2023/09/16 14:26:26;;;;;;;5.90;5.30;;;;;;;;;;10584952;28;20059;-81
2023/09/16 14:31:27;;;;;;;5.22;4.72;;;;;;;;;;10604227;28;20032;-81
2023/09/16 14:36:29;;;;;;;4.95;4.55;;;;;;;;;;10619437;28;20044;-81
2023/09/16 14:41:30;;;;;;;5.90;5.35;;;;;;;;;;10579865;28;20043;-82
2023/09/16 14:46:31;;;;;;;6.40;5.80;;;;;;;;;;10578937;28;20480;-81
2023/09/16 14:51:39;;;;;;;10.57;8.52;;;;;;;;;;10577304;28;20122;-81
2023/09/16 14:56:40;;;;;;;6.13;5.63;;;;;;;;;;10576983;28;20118;-81
2023/09/16 15:01:42;;;;;;;6.13;5.45;;;;;;;;;;10576626;28;20032;-81
2023/09/16 15:06:43;;;;;;;7.35;5.90;;;;;;;;;;10576855;28;20040;-82
2023/09/16 15:11:44;;;;;;;6.43;5.75;;;;;;;;;;10572731;28;20134;-82
2023/09/16 15:16:46;;;;;;;11.90;10.80;;;;;;;;;;10573517;28;20046;-82
2023/09/16 15:21:47;;;;;;;7.53;6.72;;;;;;;;;;10574343;28;20135;-82
2023/09/16 15:26:48;;;;;;;6.20;5.60;;;;;;;;;;10577777;28;20071;-83
2023/09/16 15:31:49;;;;;;;5.25;4.80;;;;;;;;;;10598054;28;20050;-81
2023/09/16 15:36:51;;;;;;;6.82;4.90;;;;;;;;;;10609759;28;20036;-83
2023/09/16 15:41:52;;;;;;;6.57;5.78;;;;;;;;;;10581146;28;20036;-82
2023/09/16 15:46:53;;;;;;;7.18;6.38;;;;;;;;;;10579166;28;20046;-81
2023/09/16 15:51:54;;;;;;;6.65;5.60;;;;;;;;;;10581162;28;20123;-83
2023/09/16 15:56:55;;;;;;;5.80;5.13;;;;;;;;;;10579993;28;20062;-81
2023/09/16 16:01:56;;;;;;;9.20;8.30;;;;;;;;;;10597362;28;20035;-83
2023/09/16 16:06:57;;;;;;;7.53;6.82;;;;;;;;;;10577464;28;20078;-82
2023/09/16 16:11:59;;;;;;;9.07;7.85;;;;;;;;;;10578273;28;20552;-83
2023/09/16 16:17:01;;;;;;;7.30;6.60;;;;;;;;;;10578566;28;20027;-84
2023/09/16 16:22:03;;;;;;;7.97;7.18;;;;;;;;;;10561040;28;20059;-82
2023/09/16 16:27:04;;;;;;;8.70;7.35;;;;;;;;;;10581262;28;20039;-83
2023/09/16 16:32:07;;;;;;;6.43;5.82;;;;;;;;;;10581848;28;20024;-83
2023/09/16 16:37:08;;;;;;;6.65;6.05;;;;;;;;;;10579358;28;20028;-83
2023/09/16 16:42:09;;;;;;;9.70;6.78;;;;;;;;;;10576971;28;20561;-84
2023/09/16 16:47:10;;;;;;;5.72;5.22;;;;;;;;;;10588991;28;20035;-82
2023/09/16 16:52:11;;;;;;;7.30;6.60;;;;;;;;;;10602964;28;20122;-81
2023/09/16 16:57:12;;;;;;;6.95;6.25;;;;;;;;;;10585248;28;20031;-83
2023/09/16 17:02:15;;;;;;;6.40;5.82;;;;;;;;;;10593710;28;20087;-82
2023/09/16 17:07:16;;;;;;;6.70;6.10;;;;;;;;;;10574445;28;20055;-82
2023/09/16 17:12:17;;;;;;;7.18;6.47;;;;;;;;;;10572153;28;20043;-83
2023/09/16 17:17:20;;;;;;;8.90;8.00;;;;;;;;;;10572640;28;20042;-83
2023/09/16 17:22:21;;;;;;;9.18;7.93;;;;;;;;;;10573509;28;20032;-83
2023/09/16 17:27:22;;;;;;;7.85;6.80;;;;;;;;;;10575216;28;20055;-83
2023/09/16 17:32:23;;;;;;;13.15;9.13;;;;;;;;;;10575326;28;20035;-83
2023/09/16 17:37:24;;;;;;;10.07;8.50;;;;;;;;;;10572226;28;20099;-83
2023/09/16 17:42:26;;;;;;;7.18;6.47;;;;;;;;;;10572625;28;20099;-84
2023/09/16 17:47:27;;;;;;;7.82;6.72;;;;;;;;;;10573857;28;20032;-83
2023/09/16 17:52:28;;;;;;;9.43;7.53;;;;;;;;;;10572588;28;20480;-83
2023/09/16 17:57:29;;;;;;;5.60;5.10;;;;;;;;;;10571425;28;20043;-83
2023/09/16 18:02:30;;;;;;;6.25;5.65;;;;;;;;;;10573227;28;20108;-82
2023/09/16 18:07:31;;;;;;;5.90;5.38;;;;;;;;;;10573659;28;20036;-82
2023/09/16 18:18:37;;;;;;;8.02;7.30;;;;;;;;;;10525304;28;20087;-85
2023/09/16 18:23:42;;;;;;;11.10;10.00;;;;;;;;;;10588591;28;20035;-84
2023/09/16 18:28:43;;;;;;;8.05;7.28;;;;;;;;;;10586956;28;20032;-84
2023/09/16 18:33:46;;;;;;;6.82;6.22;;;;;;;;;;10580627;28;20032;-83
2023/09/16 18:38:47;;;;;;;5.97;5.47;;;;;;;;;;10581410;28;20039;-84
2023/09/16 18:43:52;;;;;;;6.18;5.43;;;;;;;;;;10582990;28;20073;-84
2023/09/16 18:49:41;;;;;;;6.72;6.13;;;;;;;;;;10581340;28;20036;-84
2023/09/16 18:55:12;;;;;;;5.60;4.63;;;;;;;;;;10587154;28;20156;-84
2023/09/16 19:00:40;;;;;;;11.52;10.50;;;;;;;;;;10587821;28;20069;-84
2023/09/16 19:06:05;;;;;;;6.80;6.20;;;;;;;;;;10579382;28;20036;-84
2023/09/16 19:11:16;;;;;;;17.85;15.93;;;;;;;;;;10580046;28;20032;-84
